createdAt,value
2017-12-28T00:02:13.166Z,35.37
2017-12-28T00:04:40.564Z,40.03
2017-12-28T00:07:07.938Z,41.43
2017-12-28T00:09:35.401Z,32.00
2017-12-28T00:12:02.793Z,43.70
2017-12-28T00:14:30.206Z,39.03
2017-12-28T00:16:57.610Z,37.80
2017-12-28T00:19:25.005Z,37.83
2017-12-28T00:21:52.381Z,39.17
2017-12-28T00:24:19.742Z,39.23
2017-12-28T00:26:47.172Z,37.63
2017-12-28T00:29:14.524Z,35.60
2017-12-28T00:31:41.898Z,43.20
2017-12-28T00:34:09.328Z,34.43
2017-12-28T00:36:36.683Z,36.93
2017-12-28T00:39:04.150Z,40.57
2017-12-28T00:41:31.593Z,40.17
2017-12-28T00:43:58.964Z,36.87
2017-12-28T00:46:26.468Z,35.37
2017-12-28T00:48:53.855Z,39.40
2017-12-28T00:51:21.282Z,37.57
2017-12-28T00:53:48.685Z,37.10
2017-12-28T00:56:16.069Z,34.93
2017-12-28T00:58:43.449Z,35.23
2017-12-28T01:01:10.901Z,40.27
2017-12-28T01:03:38.222Z,43.97
2017-12-28T01:06:05.595Z,38.67
2017-12-28T01:08:32.984Z,40.20
2017-12-28T01:11:00.386Z,40.10
2017-12-28T01:13:27.796Z,43.43
2017-12-28T01:15:55.142Z,40.10
2017-12-28T01:18:22.632Z,44.23
2017-12-28T01:20:50.009Z,44.23
2017-12-28T01:23:17.382Z,41.60
2017-12-28T01:25:44.766Z,41.90
2017-12-28T01:28:12.133Z,33.17
2017-12-28T01:30:39.528Z,42.03
2017-12-28T01:33:06.915Z,38.73
2017-12-28T01:35:34.250Z,42.53
2017-12-28T01:38:01.652Z,40.20
2017-12-28T01:40:29.052Z,40.77
2017-12-28T01:42:56.426Z,40.97
2017-12-28T01:45:23.837Z,41.83
2017-12-28T01:47:57.049Z,39.83
2017-12-28T01:50:24.445Z,39.67
2017-12-28T01:52:52.922Z,43.30
2017-12-28T01:55:20.723Z,43.57
2017-12-28T01:57:48.394Z,39.83
2017-12-28T02:00:15.802Z,42.37
2017-12-28T02:02:43.133Z,38.23
2017-12-28T02:05:10.597Z,34.87
2017-12-28T02:07:38.121Z,37.10
2017-12-28T02:10:05.845Z,35.03
2017-12-28T02:12:33.607Z,38.00
2017-12-28T02:15:01.055Z,35.20
2017-12-28T02:17:28.820Z,36.57
2017-12-28T02:19:56.667Z,39.43
2017-12-28T02:22:24.174Z,38.77
2017-12-28T02:24:51.924Z,35.03
2017-12-28T02:27:19.672Z,32.40
2017-12-28T02:29:47.383Z,37.97
2017-12-28T02:32:14.763Z,37.07
2017-12-28T02:34:42.113Z,33.97
2017-12-28T02:37:09.504Z,35.63
2017-12-28T02:39:36.972Z,37.30
2017-12-28T02:42:04.385Z,34.33
2017-12-28T02:44:31.788Z,35.70
2017-12-28T02:46:59.246Z,37.77
2017-12-28T02:49:26.661Z,36.77
2017-12-28T02:51:54.049Z,34.07
2017-12-28T02:54:21.431Z,38.90
2017-12-28T02:56:48.867Z,35.83
2017-12-28T02:59:16.199Z,38.30
2017-12-28T03:01:43.620Z,36.80
2017-12-28T03:04:10.966Z,36.13
2017-12-28T03:06:38.609Z,40.27
2017-12-28T03:09:06.296Z,40.07
2017-12-28T03:11:34.366Z,40.00
2017-12-28T03:14:01.797Z,36.20
2017-12-28T03:16:29.221Z,38.87
2017-12-28T03:18:56.596Z,37.43
2017-12-28T03:21:24.010Z,38.20
2017-12-28T03:23:51.424Z,36.00
2017-12-28T03:26:18.794Z,36.20
2017-12-28T03:28:46.218Z,38.57
2017-12-28T03:31:13.613Z,41.83
2017-12-28T03:33:40.977Z,36.77
2017-12-28T03:36:08.408Z,37.80
2017-12-28T03:38:35.841Z,37.97
2017-12-28T03:41:03.206Z,36.47
2017-12-28T03:43:30.611Z,38.57
2017-12-28T03:45:58.017Z,35.20
2017-12-28T03:48:25.467Z,33.93
2017-12-28T03:50:52.829Z,36.27
2017-12-28T03:53:20.318Z,36.43
2017-12-28T03:55:47.773Z,40.47
2017-12-28T03:58:15.129Z,34.30
2017-12-28T04:00:42.528Z,33.17
2017-12-28T04:03:09.938Z,35.07
2017-12-28T04:05:37.324Z,37.43
2017-12-28T04:08:04.701Z,36.40
2017-12-28T04:10:32.186Z,32.13
2017-12-28T04:12:59.636Z,29.57
2017-12-28T04:15:27.370Z,34.17
2017-12-28T04:17:54.945Z,31.53
2017-12-28T04:20:22.294Z,32.97
2017-12-28T04:22:49.744Z,34.37
2017-12-28T04:25:17.156Z,28.43
2017-12-28T04:27:44.877Z,33.23
2017-12-28T04:30:12.571Z,32.43
2017-12-28T04:32:40.276Z,31.43
2017-12-28T04:35:08.070Z,26.37
2017-12-28T04:37:35.417Z,27.80
2017-12-28T04:40:02.850Z,33.97
2017-12-28T04:42:30.278Z,30.30
2017-12-28T04:44:57.620Z,30.87
2017-12-28T04:47:25.028Z,32.73
2017-12-28T04:49:52.423Z,30.60
2017-12-28T04:52:19.869Z,34.10
2017-12-28T04:54:47.315Z,35.23
2017-12-28T04:57:14.678Z,32.07
2017-12-28T04:59:42.082Z,31.50
2017-12-28T05:02:09.481Z,32.83
2017-12-28T05:04:36.918Z,33.03
2017-12-28T05:07:04.262Z,29.93
2017-12-28T05:09:31.690Z,28.83
2017-12-28T05:11:59.022Z,35.97
2017-12-28T05:14:26.481Z,32.20
2017-12-28T05:16:54.192Z,31.17
2017-12-28T05:19:21.742Z,29.10
2017-12-28T05:21:49.139Z,33.50
2017-12-28T05:24:16.565Z,32.50
2017-12-28T05:26:43.976Z,34.47
2017-12-28T05:29:11.384Z,31.73
2017-12-28T05:31:38.783Z,32.20
2017-12-28T05:34:06.223Z,33.13
2017-12-28T05:36:33.593Z,29.70
2017-12-28T05:39:01.014Z,34.53
2017-12-28T05:41:28.350Z,34.33
2017-12-28T05:43:55.762Z,32.07
2017-12-28T05:46:23.121Z,34.53
2017-12-28T05:48:50.584Z,37.43
2017-12-28T05:51:18.007Z,30.37
2017-12-28T05:53:45.371Z,34.80
2017-12-28T05:56:12.849Z,30.73
2017-12-28T05:58:40.366Z,33.20
2017-12-28T06:01:07.754Z,31.53
2017-12-28T06:03:35.231Z,31.77
2017-12-28T06:06:02.618Z,36.10
2017-12-28T06:08:30.033Z,30.23
2017-12-28T06:10:57.406Z,35.17
2017-12-28T06:13:24.810Z,31.83
2017-12-28T06:15:52.206Z,34.50
2017-12-28T06:18:19.682Z,32.10
2017-12-28T06:20:47.090Z,37.40
2017-12-28T06:23:14.508Z,33.50
2017-12-28T06:25:41.905Z,32.90
2017-12-28T06:28:09.347Z,32.70
2017-12-28T06:30:36.940Z,36.27
2017-12-28T06:33:04.370Z,35.37
2017-12-28T06:35:31.734Z,31.30
2017-12-28T06:37:59.169Z,38.30
2017-12-28T06:40:26.584Z,38.27
2017-12-28T06:42:53.981Z,35.77
2017-12-28T06:45:21.560Z,35.83
2017-12-28T06:47:49.067Z,39.40
2017-12-28T06:50:16.511Z,39.63
2017-12-28T06:52:43.942Z,42.53
2017-12-28T06:55:11.393Z,38.50
2017-12-28T06:57:38.873Z,43.30
2017-12-28T07:00:06.250Z,35.90
2017-12-28T07:02:33.655Z,38.90
2017-12-28T07:05:01.018Z,39.10
2017-12-28T07:07:28.449Z,42.23
2017-12-28T07:09:55.851Z,34.23
2017-12-28T07:12:23.284Z,38.77
2017-12-28T07:14:50.683Z,39.43
2017-12-28T07:17:18.088Z,39.70
2017-12-28T07:19:45.547Z,36.53
2017-12-28T07:22:12.962Z,38.53
2017-12-28T07:24:40.359Z,40.10
2017-12-28T07:27:07.743Z,39.37
2017-12-28T07:29:35.200Z,37.93
2017-12-28T07:32:02.851Z,34.50
2017-12-28T07:34:30.621Z,38.60
2017-12-28T07:36:58.004Z,37.13
2017-12-28T07:39:25.435Z,36.57
2017-12-28T07:41:52.809Z,39.17
2017-12-28T07:44:20.178Z,41.73
2017-12-28T07:46:47.624Z,36.43
2017-12-28T07:49:14.985Z,36.67
2017-12-28T07:51:42.369Z,33.90
2017-12-28T07:54:09.720Z,35.87
2017-12-28T07:56:37.104Z,32.43
2017-12-28T07:59:04.490Z,38.10
2017-12-28T08:01:31.845Z,43.23
2017-12-28T08:03:59.220Z,40.37
2017-12-28T08:06:26.670Z,40.90
2017-12-28T08:08:54.014Z,38.20
2017-12-28T08:11:21.459Z,43.60
2017-12-28T08:13:48.850Z,43.30
2017-12-28T08:16:16.250Z,37.57
2017-12-28T08:18:43.699Z,36.73
2017-12-28T08:21:11.163Z,38.20
2017-12-28T08:23:38.483Z,36.63
2017-12-28T08:26:06.589Z,34.07
2017-12-28T08:28:34.001Z,32.50
2017-12-28T08:31:01.530Z,37.10
2017-12-28T08:33:28.919Z,36.40
2017-12-28T08:35:56.314Z,34.77
2017-12-28T08:38:23.637Z,36.43
2017-12-28T08:40:51.031Z,39.27
2017-12-28T08:43:18.480Z,33.17
2017-12-28T08:45:45.905Z,33.90
2017-12-28T08:48:13.323Z,35.53
2017-12-28T08:50:40.808Z,28.40
2017-12-28T08:53:08.308Z,29.80
2017-12-28T08:55:35.653Z,31.90
2017-12-28T08:58:03.354Z,29.53
2017-12-28T09:00:31.221Z,27.13
2017-12-28T09:02:58.709Z,21.07
2017-12-28T09:05:26.421Z,25.70
2017-12-28T09:07:54.114Z,27.57
2017-12-28T09:10:21.482Z,25.07
2017-12-28T09:12:49.021Z,24.33
2017-12-28T09:15:16.742Z,25.70
2017-12-28T09:17:44.238Z,21.93
2017-12-28T09:20:12.057Z,20.07
2017-12-28T09:22:39.519Z,21.47
2017-12-28T09:25:07.230Z,17.77
2017-12-28T09:27:34.978Z,19.50
2017-12-28T09:30:02.629Z,21.50
2017-12-28T09:32:30.385Z,21.57
2017-12-28T09:34:58.091Z,18.33
2017-12-28T09:37:25.830Z,18.77
2017-12-28T09:39:53.209Z,21.07
2017-12-28T09:42:20.712Z,21.97
2017-12-28T09:44:48.385Z,17.13
2017-12-28T09:47:16.119Z,18.30
2017-12-28T09:49:43.845Z,18.93
2017-12-28T09:52:11.165Z,17.63
2017-12-28T09:54:38.778Z,17.90
2017-12-28T09:57:06.429Z,17.07
2017-12-28T09:59:34.129Z,18.00
2017-12-28T10:02:01.503Z,18.60
2017-12-28T10:04:29.201Z,18.40
2017-12-28T10:06:56.717Z,14.13
2017-12-28T10:09:24.389Z,17.13
2017-12-28T10:11:52.183Z,17.30
2017-12-28T10:14:19.540Z,17.53
2017-12-28T10:16:47.007Z,20.33
2017-12-28T10:19:14.389Z,14.90
2017-12-28T10:21:41.795Z,15.40
2017-12-28T10:24:09.235Z,16.43
2017-12-28T10:26:36.885Z,16.73
2017-12-28T10:29:04.670Z,14.00
2017-12-28T10:31:32.122Z,15.33
2017-12-28T10:33:59.656Z,14.57
2017-12-28T10:36:27.093Z,12.77
2017-12-28T10:38:54.552Z,14.07
2017-12-28T10:41:21.947Z,11.83
2017-12-28T10:43:49.651Z,14.13
2017-12-28T10:46:17.410Z,14.37
2017-12-28T10:48:44.734Z,9.77
2017-12-28T10:51:12.421Z,14.03
2017-12-28T10:53:39.948Z,13.13
2017-12-28T10:56:08.061Z,12.73
2017-12-28T10:58:35.494Z,11.70
2017-12-28T11:01:03.209Z,10.07
2017-12-28T11:03:30.899Z,11.37
2017-12-28T11:05:59.172Z,7.23
2017-12-28T11:08:26.602Z,12.47
2017-12-28T11:10:55.750Z,9.90
2017-12-28T11:13:24.530Z,11.40
2017-12-28T11:15:52.216Z,11.03
2017-12-28T11:18:20.880Z,11.23
2017-12-28T11:20:50.542Z,8.40
2017-12-28T11:23:19.175Z,10.20
2017-12-28T11:25:46.946Z,9.27
2017-12-28T11:28:14.296Z,8.63
2017-12-28T11:30:41.746Z,11.80
2017-12-28T11:33:09.499Z,6.93
2017-12-28T11:35:37.289Z,6.83
2017-12-28T11:38:04.657Z,6.37
2017-12-28T11:40:31.980Z,9.13
2017-12-28T11:42:59.655Z,7.63
2017-12-28T11:45:27.329Z,12.40
2017-12-28T11:47:54.802Z,9.63
2017-12-28T11:50:22.515Z,7.87
2017-12-28T11:53:09.910Z,9.67
2017-12-28T11:55:43.173Z,9.33
2017-12-28T11:58:10.691Z,9.87
2017-12-28T12:00:55.019Z,9.53
2017-12-28T12:03:28.471Z,6.80
2017-12-28T12:05:56.900Z,9.10
2017-12-28T12:08:29.854Z,7.33
2017-12-28T12:10:57.334Z,8.50
2017-12-28T12:13:24.710Z,10.77
2017-12-28T12:15:52.438Z,9.93
2017-12-28T12:18:20.155Z,6.70
2017-12-28T12:20:47.860Z,8.17
2017-12-28T12:23:15.592Z,6.00
2017-12-28T12:25:43.253Z,9.73
2017-12-28T12:28:10.671Z,7.10
2017-12-28T12:30:38.414Z,10.97
2017-12-28T12:33:05.758Z,6.80
2017-12-28T12:35:33.332Z,8.60
2017-12-28T12:38:00.856Z,7.47
2017-12-28T12:40:28.181Z,8.03
2017-12-28T12:42:55.870Z,9.00
2017-12-28T12:45:23.229Z,7.83
2017-12-28T12:47:50.598Z,14.43
2017-12-28T12:50:18.050Z,8.17
2017-12-28T12:52:45.415Z,6.90
2017-12-28T12:55:12.770Z,7.90
2017-12-28T12:57:40.460Z,12.80
2017-12-28T13:00:07.849Z,8.67
2017-12-28T13:02:35.610Z,6.47
2017-12-28T13:05:03.277Z,8.50
2017-12-28T13:07:30.986Z,13.43
2017-12-28T13:09:58.749Z,8.90
2017-12-28T13:12:26.187Z,10.47
2017-12-28T13:14:53.798Z,8.33
2017-12-28T13:17:21.632Z,7.83
2017-12-28T13:19:49.001Z,13.33
2017-12-28T13:22:16.701Z,10.27
2017-12-28T13:24:44.534Z,9.50
2017-12-28T13:27:12.197Z,12.77
2017-12-28T13:29:39.581Z,9.33
2017-12-28T13:32:07.321Z,8.20
2017-12-28T13:34:34.694Z,18.10
2017-12-28T13:37:02.229Z,9.43
2017-12-28T13:39:29.770Z,8.00
2017-12-28T13:41:57.240Z,9.33
2017-12-28T13:44:24.968Z,9.07
2017-12-28T13:46:52.599Z,9.57
2017-12-28T13:49:20.335Z,8.30
2017-12-28T13:51:48.026Z,8.37
2017-12-28T13:54:15.452Z,13.27
2017-12-28T13:56:42.839Z,15.40
2017-12-28T13:59:10.512Z,7.00
2017-12-28T14:01:38.635Z,13.27
2017-12-28T14:04:06.010Z,9.83
2017-12-28T14:06:33.394Z,13.33
2017-12-28T14:09:01.097Z,8.33
2017-12-28T14:11:28.478Z,9.07
2017-12-28T14:13:55.875Z,7.70
2017-12-28T14:16:23.281Z,7.63
2017-12-28T14:18:50.677Z,6.87
2017-12-28T14:21:18.101Z,10.80
2017-12-28T14:23:45.540Z,12.63
2017-12-28T14:26:12.946Z,10.10
2017-12-28T14:28:40.835Z,14.30
2017-12-28T14:31:08.767Z,15.20
2017-12-28T14:33:36.463Z,15.57
2017-12-28T14:36:04.003Z,11.47
2017-12-28T14:38:31.444Z,10.53
2017-12-28T14:40:59.235Z,10.13
2017-12-28T14:43:26.693Z,8.70
2017-12-28T14:45:54.058Z,11.87
2017-12-28T14:48:21.504Z,12.07
2017-12-28T14:50:48.930Z,11.80
2017-12-28T14:53:16.327Z,14.07
2017-12-28T14:55:43.750Z,7.20
2017-12-28T14:58:11.601Z,6.97
2017-12-28T15:00:38.952Z,13.50
2017-12-28T15:03:06.339Z,15.77
2017-12-28T15:05:33.930Z,11.10
2017-12-28T15:08:01.395Z,7.03
2017-12-28T15:10:28.844Z,10.83
2017-12-28T15:12:56.269Z,7.57
2017-12-28T15:15:23.675Z,13.50
2017-12-28T15:17:51.568Z,8.50
2017-12-28T15:20:19.490Z,11.57
2017-12-28T15:22:47.394Z,9.20
2017-12-28T15:25:14.737Z,9.40
2017-12-28T15:27:42.147Z,18.13
2017-12-28T15:30:09.740Z,13.13
2017-12-28T15:32:37.164Z,11.70
2017-12-28T15:35:04.481Z,8.00
2017-12-28T15:37:31.841Z,12.83
2017-12-28T15:39:59.330Z,15.10
2017-12-28T15:42:26.678Z,10.40
2017-12-28T15:44:54.066Z,8.63
2017-12-28T15:47:22.113Z,11.40
2017-12-28T15:49:49.998Z,14.93
2017-12-28T15:52:17.870Z,16.80
2017-12-28T15:54:45.205Z,10.67
2017-12-28T15:57:12.574Z,11.80
2017-12-28T15:59:39.957Z,8.43
2017-12-28T16:02:07.274Z,13.50
2017-12-28T16:04:34.690Z,13.17
2017-12-28T16:07:02.031Z,10.23
2017-12-28T16:09:29.800Z,13.97
2017-12-28T16:11:57.510Z,13.00
2017-12-28T16:14:25.203Z,15.50
2017-12-28T16:16:52.647Z,10.30
2017-12-28T16:19:20.608Z,9.93
2017-12-28T16:21:48.173Z,7.50
2017-12-28T16:24:15.603Z,8.30
2017-12-28T16:26:42.997Z,12.33
2017-12-28T16:29:10.453Z,9.10
2017-12-28T16:31:37.798Z,15.10
2017-12-28T16:34:05.561Z,20.33
2017-12-28T16:36:33.051Z,14.00
2017-12-28T16:39:00.369Z,14.50
2017-12-28T16:41:27.996Z,10.60
2017-12-28T16:43:55.385Z,17.10
2017-12-28T16:46:22.822Z,12.53
2017-12-28T16:48:50.285Z,8.03
2017-12-28T16:51:17.702Z,12.03
2017-12-28T16:53:45.597Z,12.60
2017-12-28T16:56:13.522Z,9.40
2017-12-28T16:58:40.882Z,11.53
2017-12-28T17:01:08.913Z,11.90
2017-12-28T17:03:37.372Z,16.70
2017-12-28T17:06:04.738Z,15.27
2017-12-28T17:08:32.091Z,14.17
2017-12-28T17:10:59.519Z,9.73
2017-12-28T17:13:27.418Z,14.03
2017-12-28T17:15:54.870Z,10.33
2017-12-28T17:18:22.391Z,16.27
2017-12-28T17:20:50.258Z,14.90
2017-12-28T17:23:18.166Z,10.60
2017-12-28T17:25:45.521Z,15.93
2017-12-28T17:28:13.500Z,15.00
2017-12-28T17:30:40.832Z,17.80
2017-12-28T17:33:08.197Z,15.13
2017-12-28T17:35:35.665Z,10.30
2017-12-28T17:38:03.397Z,12.73
2017-12-28T17:40:31.305Z,9.13
2017-12-28T17:42:59.203Z,7.53
2017-12-28T17:45:27.057Z,9.57
2017-12-28T17:47:54.994Z,11.40
2017-12-28T17:50:22.590Z,16.80
2017-12-28T17:52:50.002Z,18.57
2017-12-28T17:55:17.942Z,13.27
2017-12-28T17:57:45.634Z,13.57
2017-12-28T18:00:13.409Z,9.57
2017-12-28T18:02:40.783Z,14.93
2017-12-28T18:05:08.252Z,16.97
2017-12-28T18:07:36.116Z,10.70
2017-12-28T18:10:03.502Z,12.67
2017-12-28T18:12:31.010Z,14.40
2017-12-28T18:14:58.909Z,9.47
2017-12-28T18:17:26.785Z,21.37
2017-12-28T18:19:54.690Z,12.80
2017-12-28T18:22:22.484Z,10.70
2017-12-28T18:24:49.976Z,13.20
2017-12-28T18:27:17.810Z,10.70
2017-12-28T18:29:45.238Z,10.43
2017-12-28T18:32:13.185Z,19.03
2017-12-28T18:34:40.508Z,13.90
2017-12-28T18:37:08.395Z,8.70
2017-12-28T18:39:36.334Z,14.93
2017-12-28T18:42:03.706Z,15.50
2017-12-28T18:44:31.556Z,13.83
2017-12-28T18:47:00.076Z,10.43
2017-12-28T18:49:28.039Z,20.23
2017-12-28T18:51:56.008Z,12.07
2017-12-28T18:54:23.630Z,7.53
2017-12-28T18:56:54.218Z,6.87
2017-12-28T18:59:24.132Z,14.93
2017-12-28T19:01:53.402Z,14.10
2017-12-28T19:04:21.338Z,15.10
2017-12-28T19:06:48.939Z,11.47
2017-12-28T19:09:16.698Z,8.97
2017-12-28T19:11:44.377Z,9.47
2017-12-28T19:14:11.976Z,17.93
2017-12-28T19:16:39.823Z,15.73
2017-12-28T19:19:07.146Z,12.47
2017-12-28T19:21:35.003Z,19.83
2017-12-28T19:24:02.756Z,22.50
2017-12-28T19:26:30.966Z,15.33
2017-12-28T19:28:58.797Z,10.10
2017-12-28T19:31:26.829Z,15.93
2017-12-28T19:33:54.185Z,15.43
2017-12-28T19:36:21.606Z,18.73
2017-12-28T19:38:48.993Z,15.07
2017-12-28T19:41:16.335Z,17.70
2017-12-28T19:43:43.721Z,16.10
2017-12-28T19:46:11.166Z,14.83
2017-12-28T19:48:38.635Z,10.93
2017-12-28T19:51:06.000Z,12.40
2017-12-28T19:53:33.352Z,13.20
2017-12-28T19:56:00.748Z,12.67
2017-12-28T19:58:28.287Z,12.80
2017-12-28T20:00:55.880Z,14.10
2017-12-28T20:03:23.277Z,11.50
2017-12-28T20:05:50.665Z,13.30
2017-12-28T20:08:18.016Z,17.10
2017-12-28T20:10:45.935Z,22.17
2017-12-28T20:13:13.850Z,12.47
2017-12-28T20:15:41.739Z,12.67
2017-12-28T20:18:09.616Z,19.33
2017-12-28T20:20:37.419Z,16.53
2017-12-28T20:23:05.060Z,11.70
2017-12-28T20:25:32.455Z,12.17
2017-12-28T20:27:59.765Z,12.83
2017-12-28T20:30:27.289Z,17.93
2017-12-28T20:32:55.147Z,17.33
2017-12-28T20:35:22.995Z,16.63
2017-12-28T20:37:50.356Z,18.57
2017-12-28T20:40:18.295Z,22.77
2017-12-28T20:42:46.202Z,12.70
2017-12-28T20:45:14.138Z,11.10
2017-12-28T20:47:41.857Z,14.60
2017-12-28T20:50:09.514Z,14.60
2017-12-28T20:52:36.942Z,15.13
2017-12-28T20:55:04.820Z,13.90
2017-12-28T20:57:32.523Z,12.17
2017-12-28T21:00:00.284Z,12.90
2017-12-28T21:02:27.778Z,16.07
2017-12-28T21:04:55.537Z,10.07
2017-12-28T21:07:24.046Z,12.20
2017-12-28T21:09:51.404Z,12.23
2017-12-28T21:12:19.068Z,9.97
2017-12-28T21:14:46.771Z,12.97
2017-12-28T21:17:14.547Z,18.67
2017-12-28T21:19:42.300Z,16.13
2017-12-28T21:22:10.033Z,10.43
2017-12-28T21:24:41.158Z,11.00
2017-12-28T21:27:08.839Z,17.63
2017-12-28T21:29:36.468Z,15.40
2017-12-28T21:32:03.965Z,13.57
2017-12-28T21:34:31.637Z,17.73
2017-12-28T21:36:59.319Z,16.57
2017-12-28T21:39:27.062Z,10.40
2017-12-28T21:41:54.785Z,13.57
2017-12-28T21:44:22.539Z,13.00
2017-12-28T21:46:49.846Z,18.80
2017-12-28T21:49:17.241Z,14.20
2017-12-28T21:51:44.994Z,13.53
2017-12-28T21:54:12.705Z,16.63
2017-12-28T21:56:40.409Z,12.10
2017-12-28T21:59:07.834Z,13.83
2017-12-28T22:01:35.474Z,13.50
2017-12-28T22:04:03.168Z,14.83
2017-12-28T22:06:30.512Z,14.07
2017-12-28T22:08:57.865Z,14.07
2017-12-28T22:11:25.561Z,15.00
2017-12-28T22:13:53.266Z,20.57
2017-12-28T22:16:20.988Z,17.03
2017-12-28T22:18:48.845Z,16.20
2017-12-28T22:21:16.353Z,9.87
2017-12-28T22:23:44.038Z,13.50
2017-12-28T22:26:11.726Z,13.53
2017-12-28T22:28:39.520Z,13.50
2017-12-28T22:31:07.253Z,14.13
2017-12-28T22:33:34.964Z,15.70
2017-12-28T22:36:02.332Z,15.10
2017-12-28T22:38:30.111Z,14.73
2017-12-28T22:40:57.750Z,12.80
2017-12-28T22:43:25.440Z,18.73
2017-12-28T22:45:53.256Z,21.57
2017-12-28T22:48:20.678Z,13.90
2017-12-28T22:50:48.065Z,14.67
2017-12-28T22:53:15.546Z,11.60
2017-12-28T22:55:43.267Z,12.80
2017-12-28T22:58:10.697Z,14.40
2017-12-28T23:00:38.396Z,13.40
2017-12-28T23:03:05.996Z,19.00
2017-12-28T23:05:33.678Z,18.30
2017-12-28T23:08:01.339Z,19.20
2017-12-28T23:10:29.045Z,16.03
2017-12-28T23:12:56.788Z,12.17
2017-12-28T23:15:24.522Z,19.80
2017-12-28T23:17:51.918Z,14.07
2017-12-28T23:20:19.342Z,20.77
2017-12-28T23:22:46.698Z,15.40
2017-12-28T23:25:14.409Z,17.37
2017-12-28T23:27:42.108Z,14.70
2017-12-28T23:30:09.773Z,17.63
2017-12-28T23:32:37.141Z,18.50
2017-12-28T23:35:04.526Z,13.07
2017-12-28T23:37:32.436Z,19.17
2017-12-28T23:40:00.240Z,21.80
2017-12-28T23:42:27.558Z,18.13
2017-12-28T23:44:55.221Z,18.30
2017-12-28T23:47:22.937Z,21.30
2017-12-28T23:49:50.658Z,20.40
2017-12-28T23:52:18.321Z,21.23
2017-12-28T23:54:45.881Z,19.47
2017-12-28T23:57:13.530Z,18.90
2017-12-28T23:59:41.111Z,22.57
